Aviation Digital Data Service (ADDS)

Output produced by METARs form (1238 UTC 22 March 2019)
found at http://www.aviationweather.gov/metar/data/
 
METAR text: ESIA 221220Z AUTO 18007KT 140V200 9999 OVC110/// 08/M02 Q1030
Conditions at: ESIA (KARLSBORG (SWE-A, SE) observed 1220 UTC 22 March 2019
Temperature: 8.0°C (46°F)
Dewpoint: -2.0°C (28°F) [RH = 49%]
Pressure (altimeter): 30.41 inches Hg (1030.0 mb)
Winds: from the S (180 degrees) at 8 MPH (7 knots; 3.6 m/s)
Visibility: 6 or more miles (10+ km)
Ceiling: 11000 feet AGL
Clouds: overcast cloud deck at 11000 feet AGL
Weather: no significant weather observed at this time

METAR text: ESIA 221150Z AUTO 19005KT 9999 OVC110/// 08/M03 Q1030
Conditions at: ESIA (KARLSBORG (SWE-A, SE) observed 1150 UTC 22 March 2019
Temperature: 8.0°C (46°F)
Dewpoint: -3.0°C (27°F) [RH = 46%]
Pressure (altimeter): 30.41 inches Hg (1030.0 mb)
Winds: from the S (190 degrees) at 6 MPH (5 knots; 2.6 m/s)
Visibility: 6 or more miles (10+ km)
Ceiling: 11000 feet AGL
Clouds: overcast cloud deck at 11000 feet AGL
Weather: no significant weather observed at this time

METAR text: ESIA 221120Z AUTO 20005KT 9999 BKN130/// 08/M04 Q1031
Conditions at: ESIA (KARLSBORG (SWE-A, SE) observed 1120 UTC 22 March 2019
Temperature: 8.0°C (46°F)
Dewpoint: -4.0°C (25°F) [RH = 42%]
Pressure (altimeter): 30.44 inches Hg (1031.0 mb)
Winds: from the SSW (200 degrees) at 6 MPH (5 knots; 2.6 m/s)
Visibility: 6 or more miles (10+ km)
Ceiling: 13000 feet AGL
Clouds: broken clouds at 13000 feet AGL
Weather: no significant weather observed at this time

METAR text: ESIA 221050Z 19006KT CAVOK 08/M04 Q1032
Conditions at: ESIA (KARLSBORG (SWE-A, SE) observed 1050 UTC 22 March 2019
Temperature: 8.0°C (46°F)
Dewpoint: -4.0°C (25°F) [RH = 42%]
Pressure (altimeter): 30.47 inches Hg (1032.0 mb)
Winds: from the S (190 degrees) at 7 MPH (6 knots; 3.1 m/s)
Visibility: 6 or more miles (10+ km)
Ceiling: ceiling and visibility are OK
Clouds: unknown
Weather: no significant weather observed at this time

METAR text: ESIA 221020Z 18004KT 120V220 CAVOK 07/M04 Q1032
Conditions at: ESIA (KARLSBORG (SWE-A, SE) observed 1020 UTC 22 March 2019
Temperature: 7.0°C (45°F)
Dewpoint: -4.0°C (25°F) [RH = 45%]
Pressure (altimeter): 30.47 inches Hg (1032.0 mb)
Winds: from the S (180 degrees) at 5 MPH (4 knots; 2.1 m/s)
Visibility: 6 or more miles (10+ km)
Ceiling: ceiling and visibility are OK
Clouds: unknown
Weather: no significant weather observed at this time

METAR text: ESIA 220950Z 19004KT 130V220 CAVOK 06/M03 Q1032
Conditions at: ESIA (KARLSBORG (SWE-A, SE) observed 0950 UTC 22 March 2019
Temperature: 6.0°C (43°F)
Dewpoint: -3.0°C (27°F) [RH = 52%]
Pressure (altimeter): 30.47 inches Hg (1032.0 mb)
Winds: from the S (190 degrees) at 5 MPH (4 knots; 2.1 m/s)
Visibility: 6 or more miles (10+ km)
Ceiling: ceiling and visibility are OK
Clouds: unknown
Weather: no significant weather observed at this time

METAR text: ESIA 220920Z 14005KT 100V180 CAVOK 05/M02 Q1033
Conditions at: ESIA (KARLSBORG (SWE-A, SE) observed 0920 UTC 22 March 2019
Temperature: 5.0°C (41°F)
Dewpoint: -2.0°C (28°F) [RH = 60%]
Pressure (altimeter): 30.50 inches Hg (1033.0 mb)
Winds: from the SE (140 degrees) at 6 MPH (5 knots; 2.6 m/s)
Visibility: 6 or more miles (10+ km)
Ceiling: ceiling and visibility are OK
Clouds: unknown
Weather: no significant weather observed at this time

METAR text: ESIA 220850Z 14005KT CAVOK 05/M02 Q1033
Conditions at: ESIA (KARLSBORG (SWE-A, SE) observed 0850 UTC 22 March 2019
Temperature: 5.0°C (41°F)
Dewpoint: -2.0°C (28°F) [RH = 60%]
Pressure (altimeter): 30.50 inches Hg (1033.0 mb)
Winds: from the SE (140 degrees) at 6 MPH (5 knots; 2.6 m/s)
Visibility: 6 or more miles (10+ km)
Ceiling: ceiling and visibility are OK
Clouds: unknown
Weather: no significant weather observed at this time

METAR text: ESIA 220820Z 00000KT CAVOK 04/01 Q1033
Conditions at: ESIA (KARLSBORG (SWE-A, SE) observed 0820 UTC 22 March 2019
Temperature: 4.0°C (39°F)
Dewpoint: 1.0°C (34°F) [RH = 81%]
Pressure (altimeter): 30.50 inches Hg (1033.0 mb)
Winds: calm
Visibility: 6 or more miles (10+ km)
Ceiling: ceiling and visibility are OK
Clouds: unknown
Weather: no significant weather observed at this time

METAR text: ESIA 220750Z 00000KT CAVOK 03/00 Q1032
Conditions at: ESIA (KARLSBORG (SWE-A, SE) observed 0750 UTC 22 March 2019
Temperature: 3.0°C (37°F)
Dewpoint: 0.0°C (32°F) [RH = 81%]
Pressure (altimeter): 30.47 inches Hg (1032.0 mb)
Winds: calm
Visibility: 6 or more miles (10+ km)
Ceiling: ceiling and visibility are OK
Clouds: unknown
Weather: no significant weather observed at this time

METAR text: ESIA 220720Z 00000KT CAVOK 03/01 Q1032
Conditions at: ESIA (KARLSBORG (SWE-A, SE) observed 0720 UTC 22 March 2019
Temperature: 3.0°C (37°F)
Dewpoint: 1.0°C (34°F) [RH = 87%]
Pressure (altimeter): 30.47 inches Hg (1032.0 mb)
Winds: calm
Visibility: 6 or more miles (10+ km)
Ceiling: ceiling and visibility are OK
Clouds: unknown
Weather: no significant weather observed at this time

METAR text: ESIA 220650Z AUTO 00000KT 9999 NCD 01/M00 Q1032
Conditions at: ESIA (KARLSBORG (SWE-A, SE) observed 0650 UTC 22 March 2019
Temperature: 1.0°C (34°F)
Dewpoint: 0.0°C (32°F) [RH = 93%]
Pressure (altimeter): 30.47 inches Hg (1032.0 mb)
Winds: calm
Visibility: 6 or more miles (10+ km)
Ceiling: at least 12,000 feet AGL
Clouds: sky clear below 12,000 feet AGL
Weather: no significant weather observed at this time

METAR text: ESIA 220620Z AUTO 00000KT 9999 NCD M01/M02 Q1032
Conditions at: ESIA (KARLSBORG (SWE-A, SE) observed 0620 UTC 22 March 2019
Temperature: -1.0°C (30°F)
Dewpoint: -2.0°C (28°F) [RH = 93%]
Pressure (altimeter): 30.47 inches Hg (1032.0 mb)
Winds: calm
Visibility: 6 or more miles (10+ km)
Ceiling: at least 12,000 feet AGL
Clouds: sky clear below 12,000 feet AGL
Weather: no significant weather observed at this time

METAR text: ESIA 220550Z AUTO 00000KT 9999 NCD M02/M03 Q1032
Conditions at: ESIA (KARLSBORG (SWE-A, SE) observed 0550 UTC 22 March 2019
Temperature: -2.0°C (28°F)
Dewpoint: -3.0°C (27°F) [RH = 93%]
Pressure (altimeter): 30.47 inches Hg (1032.0 mb)
Winds: calm
Visibility: 6 or more miles (10+ km)
Ceiling: at least 12,000 feet AGL
Clouds: sky clear below 12,000 feet AGL
Weather: no significant weather observed at this time

METAR text: ESIA 220520Z AUTO 00000KT 5000 FZFG NCD M03/M04 Q1031
Conditions at: ESIA (KARLSBORG (SWE-A, SE) observed 0520 UTC 22 March 2019
Temperature: -3.0°C (27°F)
Dewpoint: -4.0°C (25°F) [RH = 93%]
Pressure (altimeter): 30.44 inches Hg (1031.0 mb)
Winds: calm
Visibility: 3 miles ( 5 km)
Ceiling: at least 12,000 feet AGL
Clouds: sky clear below 12,000 feet AGL
Weather: FZFG  (freezing fog)

METAR text: ESIA 220450Z AUTO 00000KT 2900 BR NCD M02/M03 Q1031
Conditions at: ESIA (KARLSBORG (SWE-A, SE) observed 0450 UTC 22 March 2019
Temperature: -2.0°C (28°F)
Dewpoint: -3.0°C (27°F) [RH = 93%]
Pressure (altimeter): 30.44 inches Hg (1031.0 mb)
Winds: calm
Visibility: 1.80 miles (2.90 km)
Ceiling: at least 12,000 feet AGL
Clouds: sky clear below 12,000 feet AGL
Weather: BR  (mist)

METAR text: ESIA 220420Z AUTO 00000KT 9999 NCD M02/M03 Q1030
Conditions at: ESIA (KARLSBORG (SWE-A, SE) observed 0420 UTC 22 March 2019
Temperature: -2.0°C (28°F)
Dewpoint: -3.0°C (27°F) [RH = 93%]
Pressure (altimeter): 30.41 inches Hg (1030.0 mb)
Winds: calm
Visibility: 6 or more miles (10+ km)
Ceiling: at least 12,000 feet AGL
Clouds: sky clear below 12,000 feet AGL
Weather: no significant weather observed at this time

METAR text: ESIA 220350Z AUTO 00000KT 9999 NCD M02/M03 Q1030
Conditions at: ESIA (KARLSBORG (SWE-A, SE) observed 0350 UTC 22 March 2019
Temperature: -2.0°C (28°F)
Dewpoint: -3.0°C (27°F) [RH = 93%]
Pressure (altimeter): 30.41 inches Hg (1030.0 mb)
Winds: calm
Visibility: 6 or more miles (10+ km)
Ceiling: at least 12,000 feet AGL
Clouds: sky clear below 12,000 feet AGL
Weather: no significant weather observed at this time

METAR text: ESIA 220320Z AUTO 00000KT 9999 NCD M01/M02 Q1030
Conditions at: ESIA (KARLSBORG (SWE-A, SE) observed 0320 UTC 22 March 2019
Temperature: -1.0°C (30°F)
Dewpoint: -2.0°C (28°F) [RH = 93%]
Pressure (altimeter): 30.41 inches Hg (1030.0 mb)
Winds: calm
Visibility: 6 or more miles (10+ km)
Ceiling: at least 12,000 feet AGL
Clouds: sky clear below 12,000 feet AGL
Weather: no significant weather observed at this time

METAR text: ESIA 220250Z AUTO 00000KT 9999 NCD M00/M02 Q1030
Conditions at: ESIA (KARLSBORG (SWE-A, SE) observed 0250 UTC 22 March 2019
Temperature: 0.0°C (32°F)
Dewpoint: -2.0°C (28°F) [RH = 86%]
Pressure (altimeter): 30.41 inches Hg (1030.0 mb)
Winds: calm
Visibility: 6 or more miles (10+ km)
Ceiling: at least 12,000 feet AGL
Clouds: sky clear below 12,000 feet AGL
Weather: no significant weather observed at this time

METAR text: ESIA 220150Z AUTO VRB02KT 9999 NCD 02/M01 Q1030
Conditions at: ESIA (KARLSBORG (SWE-A, SE) observed 0150 UTC 22 March 2019
Temperature: 2.0°C (36°F)
Dewpoint: -1.0°C (30°F) [RH = 80%]
Pressure (altimeter): 30.41 inches Hg (1030.0 mb)
Winds: variable direction winds at 2 MPH (2 knots; 1.0 m/s)
Visibility: 6 or more miles (10+ km)
Ceiling: at least 12,000 feet AGL
Clouds: sky clear below 12,000 feet AGL
Weather: no significant weather observed at this time

METAR text: ESIA 220120Z AUTO VRB02KT 9999 NCD 03/M01 Q1029
Conditions at: ESIA (KARLSBORG (SWE-A, SE) observed 0120 UTC 22 March 2019
Temperature: 3.0°C (37°F)
Dewpoint: -1.0°C (30°F) [RH = 75%]
Pressure (altimeter): 30.38 inches Hg (1029.0 mb)
Winds: variable direction winds at 2 MPH (2 knots; 1.0 m/s)
Visibility: 6 or more miles (10+ km)
Ceiling: at least 12,000 feet AGL
Clouds: sky clear below 12,000 feet AGL
Weather: no significant weather observed at this time

METAR text: ESIA 220020Z AUTO 34003KT 9999 NCD 04/02 Q1029
Conditions at: ESIA (KARLSBORG (SWE-A, SE) observed 0020 UTC 22 March 2019
Temperature: 4.0°C (39°F)
Dewpoint: 2.0°C (36°F) [RH = 87%]
Pressure (altimeter): 30.38 inches Hg (1029.0 mb)
Winds: from the NNW (340 degrees) at 3 MPH (3 knots; 1.5 m/s)
Visibility: 6 or more miles (10+ km)
Ceiling: at least 12,000 feet AGL
Clouds: sky clear below 12,000 feet AGL
Weather: no significant weather observed at this time

METAR text: ESIA 212350Z AUTO 34002KT 9999 NCD 05/02 Q1028
Conditions at: ESIA (KARLSBORG (SWE-A, SE) observed 2350 UTC 21 March 2019
Temperature: 5.0°C (41°F)
Dewpoint: 2.0°C (36°F) [RH = 81%]
Pressure (altimeter): 30.35 inches Hg (1028.0 mb)
Winds: from the NNW (340 degrees) at 2 MPH (2 knots; 1.0 m/s)
Visibility: 6 or more miles (10+ km)
Ceiling: at least 12,000 feet AGL
Clouds: sky clear below 12,000 feet AGL
Weather: no significant weather observed at this time

METAR text: ESIA 212320Z AUTO 36004KT 9999 NCD 05/02 Q1027
Conditions at: ESIA (KARLSBORG (SWE-A, SE) observed 2320 UTC 21 March 2019
Temperature: 5.0°C (41°F)
Dewpoint: 2.0°C (36°F) [RH = 81%]
Pressure (altimeter): 30.32 inches Hg (1027.0 mb)
Winds: from the N (360 degrees) at 5 MPH (4 knots; 2.1 m/s)
Visibility: 6 or more miles (10+ km)
Ceiling: at least 12,000 feet AGL
Clouds: sky clear below 12,000 feet AGL
Weather: no significant weather observed at this time

METAR text: ESIA 212250Z AUTO 35003KT 9999 NCD 05/03 Q1026
Conditions at: ESIA (KARLSBORG (SWE-A, SE) observed 2250 UTC 21 March 2019
Temperature: 5.0°C (41°F)
Dewpoint: 3.0°C (37°F) [RH = 87%]
Pressure (altimeter): 30.30 inches Hg (1026.0 mb)
Winds: from the N (350 degrees) at 3 MPH (3 knots; 1.5 m/s)
Visibility: 6 or more miles (10+ km)
Ceiling: at least 12,000 feet AGL
Clouds: sky clear below 12,000 feet AGL
Weather: no significant weather observed at this time

METAR text: ESIA 212220Z AUTO 35004KT 320V030 9999 NCD 06/03 Q1026
Conditions at: ESIA (KARLSBORG (SWE-A, SE) observed 2220 UTC 21 March 2019
Temperature: 6.0°C (43°F)
Dewpoint: 3.0°C (37°F) [RH = 81%]
Pressure (altimeter): 30.30 inches Hg (1026.0 mb)
Winds: from the N (350 degrees) at 5 MPH (4 knots; 2.1 m/s)
Visibility: 6 or more miles (10+ km)
Ceiling: at least 12,000 feet AGL
Clouds: sky clear below 12,000 feet AGL
Weather: no significant weather observed at this time

METAR text: ESIA 212150Z AUTO 33005KT 290V010 9999 FEW022/// 07/04 Q1025
Conditions at: ESIA (KARLSBORG (SWE-A, SE) observed 2150 UTC 21 March 2019
Temperature: 7.0°C (45°F)
Dewpoint: 4.0°C (39°F) [RH = 81%]
Pressure (altimeter): 30.27 inches Hg (1025.0 mb)
Winds: from the NNW (330 degrees) at 6 MPH (5 knots; 2.6 m/s)
Visibility: 6 or more miles (10+ km)
Ceiling: at least 12,000 feet AGL
Clouds: few clouds at 2200 feet AGL
Weather: no significant weather observed at this time

METAR text: ESIA 212120Z AUTO 31006KT 280V340 9999 NCD 08/04 Q1024
Conditions at: ESIA (KARLSBORG (SWE-A, SE) observed 2120 UTC 21 March 2019
Temperature: 8.0°C (46°F)
Dewpoint: 4.0°C (39°F) [RH = 76%]
Pressure (altimeter): 30.24 inches Hg (1024.0 mb)
Winds: from the NW (310 degrees) at 7 MPH (6 knots; 3.1 m/s)
Visibility: 6 or more miles (10+ km)
Ceiling: at least 12,000 feet AGL
Clouds: sky clear below 12,000 feet AGL
Weather: no significant weather observed at this time

METAR text: ESIA 212050Z AUTO 28010KT 9999 NCD 08/05 Q1023
Conditions at: ESIA (KARLSBORG (SWE-A, SE) observed 2050 UTC 21 March 2019
Temperature: 8.0°C (46°F)
Dewpoint: 5.0°C (41°F) [RH = 81%]
Pressure (altimeter): 30.21 inches Hg (1023.0 mb)
Winds: from the W (280 degrees) at 12 MPH (10 knots; 5.1 m/s)
Visibility: 6 or more miles (10+ km)
Ceiling: at least 12,000 feet AGL
Clouds: sky clear below 12,000 feet AGL
Weather: no significant weather observed at this time

METAR text: ESIA 212020Z AUTO 28011KT 9999 NCD 08/05 Q1022
Conditions at: ESIA (KARLSBORG (SWE-A, SE) observed 2020 UTC 21 March 2019
Temperature: 8.0°C (46°F)
Dewpoint: 5.0°C (41°F) [RH = 81%]
Pressure (altimeter): 30.18 inches Hg (1022.0 mb)
Winds: from the W (280 degrees) at 13 MPH (11 knots; 5.7 m/s)
Visibility: 6 or more miles (10+ km)
Ceiling: at least 12,000 feet AGL
Clouds: sky clear below 12,000 feet AGL
Weather: no significant weather observed at this time

METAR text: ESIA 211950Z AUTO 28013KT 9999 NCD 08/06 Q1022
Conditions at: ESIA (KARLSBORG (SWE-A, SE) observed 1950 UTC 21 March 2019
Temperature: 8.0°C (46°F)
Dewpoint: 6.0°C (43°F) [RH = 87%]
Pressure (altimeter): 30.18 inches Hg (1022.0 mb)
Winds: from the W (280 degrees) at 15 MPH (13 knots; 6.7 m/s)
Visibility: 6 or more miles (10+ km)
Ceiling: at least 12,000 feet AGL
Clouds: sky clear below 12,000 feet AGL
Weather: no significant weather observed at this time

METAR text: ESIA 211920Z AUTO 27013KT 9999 NCD 08/06 Q1021
Conditions at: ESIA (KARLSBORG (SWE-A, SE) observed 1920 UTC 21 March 2019
Temperature: 8.0°C (46°F)
Dewpoint: 6.0°C (43°F) [RH = 87%]
Pressure (altimeter): 30.15 inches Hg (1021.0 mb)
Winds: from the W (270 degrees) at 15 MPH (13 knots; 6.7 m/s)
Visibility: 6 or more miles (10+ km)
Ceiling: at least 12,000 feet AGL
Clouds: sky clear below 12,000 feet AGL
Weather: no significant weather observed at this time

METAR text: ESIA 211850Z AUTO 27009KT 9999 NCD 09/06 Q1021
Conditions at: ESIA (KARLSBORG (SWE-A, SE) observed 1850 UTC 21 March 2019
Temperature: 9.0°C (48°F)
Dewpoint: 6.0°C (43°F) [RH = 81%]
Pressure (altimeter): 30.15 inches Hg (1021.0 mb)
Winds: from the W (270 degrees) at 10 MPH (9 knots; 4.6 m/s)
Visibility: 6 or more miles (10+ km)
Ceiling: at least 12,000 feet AGL
Clouds: sky clear below 12,000 feet AGL
Weather: no significant weather observed at this time

METAR text: ESIA 211820Z AUTO 26008KT 9999 NCD 08/06 Q1020
Conditions at: ESIA (KARLSBORG (SWE-A, SE) observed 1820 UTC 21 March 2019
Temperature: 8.0°C (46°F)
Dewpoint: 6.0°C (43°F) [RH = 87%]
Pressure (altimeter): 30.12 inches Hg (1020.0 mb)
Winds: from the W (260 degrees) at 9 MPH (8 knots; 4.1 m/s)
Visibility: 6 or more miles (10+ km)
Ceiling: at least 12,000 feet AGL
Clouds: sky clear below 12,000 feet AGL
Weather: no significant weather observed at this time

METAR text: ESIA 211750Z AUTO 26009KT 9999 FEW014/// 09/06 Q1020
Conditions at: ESIA (KARLSBORG (SWE-A, SE) observed 1750 UTC 21 March 2019
Temperature: 9.0°C (48°F)
Dewpoint: 6.0°C (43°F) [RH = 81%]
Pressure (altimeter): 30.12 inches Hg (1020.0 mb)
Winds: from the W (260 degrees) at 10 MPH (9 knots; 4.6 m/s)
Visibility: 6 or more miles (10+ km)
Ceiling: at least 12,000 feet AGL
Clouds: few clouds at 1400 feet AGL
Weather: no significant weather observed at this time

METAR text: ESIA 211720Z AUTO 27013KT 9999 BKN014/// 09/07 Q1019
Conditions at: ESIA (KARLSBORG (SWE-A, SE) observed 1720 UTC 21 March 2019
Temperature: 9.0°C (48°F)
Dewpoint: 7.0°C (45°F) [RH = 87%]
Pressure (altimeter): 30.09 inches Hg (1019.0 mb)
Winds: from the W (270 degrees) at 15 MPH (13 knots; 6.7 m/s)
Visibility: 6 or more miles (10+ km)
Ceiling: 1400 feet AGL
Clouds: broken clouds at 1400 feet AGL
Weather: no significant weather observed at this time

METAR text: ESIA 211650Z AUTO 27012KT 9999 OVC015/// 10/07 Q1019
Conditions at: ESIA (KARLSBORG (SWE-A, SE) observed 1650 UTC 21 March 2019
Temperature: 10.0°C (50°F)
Dewpoint: 7.0°C (45°F) [RH = 82%]
Pressure (altimeter): 30.09 inches Hg (1019.0 mb)
Winds: from the W (270 degrees) at 14 MPH (12 knots; 6.2 m/s)
Visibility: 6 or more miles (10+ km)
Ceiling: 1500 feet AGL
Clouds: overcast cloud deck at 1500 feet AGL
Weather: no significant weather observed at this time

METAR text: ESIA 211620Z AUTO 27013KT 9999 OVC016/// 10/07 Q1019
Conditions at: ESIA (KARLSBORG (SWE-A, SE) observed 1620 UTC 21 March 2019
Temperature: 10.0°C (50°F)
Dewpoint: 7.0°C (45°F) [RH = 82%]
Pressure (altimeter): 30.09 inches Hg (1019.0 mb)
Winds: from the W (270 degrees) at 15 MPH (13 knots; 6.7 m/s)
Visibility: 6 or more miles (10+ km)
Ceiling: 1600 feet AGL
Clouds: overcast cloud deck at 1600 feet AGL
Weather: no significant weather observed at this time

METAR text: ESIA 211550Z AUTO 26010KT 240V310 9999 OVC017/// 10/07 Q1018
Conditions at: ESIA (KARLSBORG (SWE-A, SE) observed 1550 UTC 21 March 2019
Temperature: 10.0°C (50°F)
Dewpoint: 7.0°C (45°F) [RH = 82%]
Pressure (altimeter): 30.06 inches Hg (1018.0 mb)
Winds: from the W (260 degrees) at 12 MPH (10 knots; 5.1 m/s)
Visibility: 6 or more miles (10+ km)
Ceiling: 1700 feet AGL
Clouds: overcast cloud deck at 1700 feet AGL
Weather: no significant weather observed at this time

METAR text: ESIA 211520Z AUTO 27013KT 9999 OVC017/// 10/07 Q1018
Conditions at: ESIA (KARLSBORG (SWE-A, SE) observed 1520 UTC 21 March 2019
Temperature: 10.0°C (50°F)
Dewpoint: 7.0°C (45°F) [RH = 82%]
Pressure (altimeter): 30.06 inches Hg (1018.0 mb)
Winds: from the W (270 degrees) at 15 MPH (13 knots; 6.7 m/s)
Visibility: 6 or more miles (10+ km)
Ceiling: 1700 feet AGL
Clouds: overcast cloud deck at 1700 feet AGL
Weather: no significant weather observed at this time

METAR text: ESIA 211450Z 26014KT 9999 BKN017 10/07 Q1018
Conditions at: ESIA (KARLSBORG (SWE-A, SE) observed 1450 UTC 21 March 2019
Temperature: 10.0°C (50°F)
Dewpoint: 7.0°C (45°F) [RH = 82%]
Pressure (altimeter): 30.06 inches Hg (1018.0 mb)
Winds: from the W (260 degrees) at 16 MPH (14 knots; 7.2 m/s)
Visibility: 6 or more miles (10+ km)
Ceiling: 1700 feet AGL
Clouds: broken clouds at 1700 feet AGL
Weather: no significant weather observed at this time

METAR text: ESIA 211420Z 26013KT 240V300 9999 BKN017 11/07 Q1018
Conditions at: ESIA (KARLSBORG (SWE-A, SE) observed 1420 UTC 21 March 2019
Temperature: 11.0°C (52°F)
Dewpoint: 7.0°C (45°F) [RH = 76%]
Pressure (altimeter): 30.06 inches Hg (1018.0 mb)
Winds: from the W (260 degrees) at 15 MPH (13 knots; 6.7 m/s)
Visibility: 6 or more miles (10+ km)
Ceiling: 1700 feet AGL
Clouds: broken clouds at 1700 feet AGL
Weather: no significant weather observed at this time

METAR text: ESIA 211350Z 26017KT 9999 BKN017 11/07 Q1018
Conditions at: ESIA (KARLSBORG (SWE-A, SE) observed 1350 UTC 21 March 2019
Temperature: 11.0°C (52°F)
Dewpoint: 7.0°C (45°F) [RH = 76%]
Pressure (altimeter): 30.06 inches Hg (1018.0 mb)
Winds: from the W (260 degrees) at 20 MPH (17 knots; 8.7 m/s)
Visibility: 6 or more miles (10+ km)
Ceiling: 1700 feet AGL
Clouds: broken clouds at 1700 feet AGL
Weather: no significant weather observed at this time

METAR text: ESIA 211320Z 26015KT 9999 BKN017 11/07 Q1018
Conditions at: ESIA (KARLSBORG (SWE-A, SE) observed 1320 UTC 21 March 2019
Temperature: 11.0°C (52°F)
Dewpoint: 7.0°C (45°F) [RH = 76%]
Pressure (altimeter): 30.06 inches Hg (1018.0 mb)
Winds: from the W (260 degrees) at 17 MPH (15 knots; 7.7 m/s)
Visibility: 6 or more miles (10+ km)
Ceiling: 1700 feet AGL
Clouds: broken clouds at 1700 feet AGL
Weather: no significant weather observed at this time

METAR text: ESIA 211250Z 26017G27KT 9999 BKN017 11/07 Q1017
Conditions at: ESIA (KARLSBORG (SWE-A, SE) observed 1250 UTC 21 March 2019
Temperature: 11.0°C (52°F)
Dewpoint: 7.0°C (45°F) [RH = 76%]
Pressure (altimeter): 30.03 inches Hg (1017.0 mb)
Winds: from the W (260 degrees) at 20 MPH (17 knots; 8.7 m/s)
gusting to 31 MPH (27 knots; 13.9 m/s)
Visibility: 6 or more miles (10+ km)
Ceiling: 1700 feet AGL
Clouds: broken clouds at 1700 feet AGL
Weather: no significant weather observed at this time

METAR text: ESIA 211220Z 26018G28KT 9999 BKN018 11/07 Q1017
Conditions at: ESIA (KARLSBORG (SWE-A, SE) observed 1220 UTC 21 March 2019
Temperature: 11.0°C (52°F)
Dewpoint: 7.0°C (45°F) [RH = 76%]
Pressure (altimeter): 30.03 inches Hg (1017.0 mb)
Winds: from the W (260 degrees) at 21 MPH (18 knots; 9.3 m/s)
gusting to 32 MPH (28 knots; 14.4 m/s)
Visibility: 6 or more miles (10+ km)
Ceiling: 1800 feet AGL
Clouds: broken clouds at 1800 feet AGL
Weather: no significant weather observed at this time

METAR text: ESIA 211150Z 26018KT 9999 BKN017 11/07 Q1017
Conditions at: ESIA (KARLSBORG (SWE-A, SE) observed 1150 UTC 21 March 2019
Temperature: 11.0°C (52°F)
Dewpoint: 7.0°C (45°F) [RH = 76%]
Pressure (altimeter): 30.03 inches Hg (1017.0 mb)
Winds: from the W (260 degrees) at 21 MPH (18 knots; 9.3 m/s)
Visibility: 6 or more miles (10+ km)
Ceiling: 1700 feet AGL
Clouds: broken clouds at 1700 feet AGL
Weather: no significant weather observed at this time

METAR text: ESIA 211120Z 25017KT 9999 BKN017 11/07 Q1017
Conditions at: ESIA (KARLSBORG (SWE-A, SE) observed 1120 UTC 21 March 2019
Temperature: 11.0°C (52°F)
Dewpoint: 7.0°C (45°F) [RH = 76%]
Pressure (altimeter): 30.03 inches Hg (1017.0 mb)
Winds: from the WSW (250 degrees) at 20 MPH (17 knots; 8.7 m/s)
Visibility: 6 or more miles (10+ km)
Ceiling: 1700 feet AGL
Clouds: broken clouds at 1700 feet AGL
Weather: no significant weather observed at this time

METAR text: ESIA 211050Z 25020KT 9999 BKN014 11/07 Q1017
Conditions at: ESIA (KARLSBORG (SWE-A, SE) observed 1050 UTC 21 March 2019
Temperature: 11.0°C (52°F)
Dewpoint: 7.0°C (45°F) [RH = 76%]
Pressure (altimeter): 30.03 inches Hg (1017.0 mb)
Winds: from the WSW (250 degrees) at 23 MPH (20 knots; 10.3 m/s)
Visibility: 6 or more miles (10+ km)
Ceiling: 1400 feet AGL
Clouds: broken clouds at 1400 feet AGL
Weather: no significant weather observed at this time

METAR text: ESIA 211020Z 25016KT 9999 BKN012 10/07 Q1017
Conditions at: ESIA (KARLSBORG (SWE-A, SE) observed 1020 UTC 21 March 2019
Temperature: 10.0°C (50°F)
Dewpoint: 7.0°C (45°F) [RH = 82%]
Pressure (altimeter): 30.03 inches Hg (1017.0 mb)
Winds: from the WSW (250 degrees) at 18 MPH (16 knots; 8.2 m/s)
Visibility: 6 or more miles (10+ km)
Ceiling: 1200 feet AGL
Clouds: broken clouds at 1200 feet AGL
Weather: no significant weather observed at this time

METAR text: ESIA 210950Z 25015KT 9999 BKN010 10/07 Q1017
Conditions at: ESIA (KARLSBORG (SWE-A, SE) observed 0950 UTC 21 March 2019
Temperature: 10.0°C (50°F)
Dewpoint: 7.0°C (45°F) [RH = 82%]
Pressure (altimeter): 30.03 inches Hg (1017.0 mb)
Winds: from the WSW (250 degrees) at 17 MPH (15 knots; 7.7 m/s)
Visibility: 6 or more miles (10+ km)
Ceiling: 1000 feet AGL
Clouds: broken clouds at 1000 feet AGL
Weather: no significant weather observed at this time

METAR text: ESIA 210920Z 25018KT 9999 BKN010 10/07 Q1017
Conditions at: ESIA (KARLSBORG (SWE-A, SE) observed 0920 UTC 21 March 2019
Temperature: 10.0°C (50°F)
Dewpoint: 7.0°C (45°F) [RH = 82%]
Pressure (altimeter): 30.03 inches Hg (1017.0 mb)
Winds: from the WSW (250 degrees) at 21 MPH (18 knots; 9.3 m/s)
Visibility: 6 or more miles (10+ km)
Ceiling: 1000 feet AGL
Clouds: broken clouds at 1000 feet AGL
Weather: no significant weather observed at this time

METAR text: ESIA 210850Z 24017KT 9999 BKN010 10/07 Q1017
Conditions at: ESIA (KARLSBORG (SWE-A, SE) observed 0850 UTC 21 March 2019
Temperature: 10.0°C (50°F)
Dewpoint: 7.0°C (45°F) [RH = 82%]
Pressure (altimeter): 30.03 inches Hg (1017.0 mb)
Winds: from the WSW (240 degrees) at 20 MPH (17 knots; 8.7 m/s)
Visibility: 6 or more miles (10+ km)
Ceiling: 1000 feet AGL
Clouds: broken clouds at 1000 feet AGL
Weather: no significant weather observed at this time

METAR text: ESIA 210820Z 24015KT 9999 BKN009 09/07 Q1018
Conditions at: ESIA (KARLSBORG (SWE-A, SE) observed 0820 UTC 21 March 2019
Temperature: 9.0°C (48°F)
Dewpoint: 7.0°C (45°F) [RH = 87%]
Pressure (altimeter): 30.06 inches Hg (1018.0 mb)
Winds: from the WSW (240 degrees) at 17 MPH (15 knots; 7.7 m/s)
Visibility: 6 or more miles (10+ km)
Ceiling: 900 feet AGL
Clouds: broken clouds at 900 feet AGL
Weather: no significant weather observed at this time

METAR text: ESIA 210750Z 24014KT 9999 BKN009 09/07 Q1018
Conditions at: ESIA (KARLSBORG (SWE-A, SE) observed 0750 UTC 21 March 2019
Temperature: 9.0°C (48°F)
Dewpoint: 7.0°C (45°F) [RH = 87%]
Pressure (altimeter): 30.06 inches Hg (1018.0 mb)
Winds: from the WSW (240 degrees) at 16 MPH (14 knots; 7.2 m/s)
Visibility: 6 or more miles (10+ km)
Ceiling: 900 feet AGL
Clouds: broken clouds at 900 feet AGL
Weather: no significant weather observed at this time

METAR text: ESIA 210720Z 20008KT 180V240 9999 BKN009 07/05 Q1018
Conditions at: ESIA (KARLSBORG (SWE-A, SE) observed 0720 UTC 21 March 2019
Temperature: 7.0°C (45°F)
Dewpoint: 5.0°C (41°F) [RH = 87%]
Pressure (altimeter): 30.06 inches Hg (1018.0 mb)
Winds: from the SSW (200 degrees) at 9 MPH (8 knots; 4.1 m/s)
Visibility: 6 or more miles (10+ km)
Ceiling: 900 feet AGL
Clouds: broken clouds at 900 feet AGL
Weather: no significant weather observed at this time

METAR text: ESIA 210650Z AUTO 19008KT 9999 OVC009/// 07/05 Q1018
Conditions at: ESIA (KARLSBORG (SWE-A, SE) observed 0650 UTC 21 March 2019
Temperature: 7.0°C (45°F)
Dewpoint: 5.0°C (41°F) [RH = 87%]
Pressure (altimeter): 30.06 inches Hg (1018.0 mb)
Winds: from the S (190 degrees) at 9 MPH (8 knots; 4.1 m/s)
Visibility: 6 or more miles (10+ km)
Ceiling: 900 feet AGL
Clouds: overcast cloud deck at 900 feet AGL
Weather: no significant weather observed at this time

METAR text: ESIA 210620Z AUTO 22010KT 9999 OVC008/// 08/06 Q1019
Conditions at: ESIA (KARLSBORG (SWE-A, SE) observed 0620 UTC 21 March 2019
Temperature: 8.0°C (46°F)
Dewpoint: 6.0°C (43°F) [RH = 87%]
Pressure (altimeter): 30.09 inches Hg (1019.0 mb)
Winds: from the SW (220 degrees) at 12 MPH (10 knots; 5.1 m/s)
Visibility: 6 or more miles (10+ km)
Ceiling: 800 feet AGL
Clouds: overcast cloud deck at 800 feet AGL
Weather: no significant weather observed at this time

METAR text: ESIA 210550Z AUTO 22011KT 9999 OVC007/// 07/06 Q1019
Conditions at: ESIA (KARLSBORG (SWE-A, SE) observed 0550 UTC 21 March 2019
Temperature: 7.0°C (45°F)
Dewpoint: 6.0°C (43°F) [RH = 93%]
Pressure (altimeter): 30.09 inches Hg (1019.0 mb)
Winds: from the SW (220 degrees) at 13 MPH (11 knots; 5.7 m/s)
Visibility: 6 or more miles (10+ km)
Ceiling: 700 feet AGL
Clouds: overcast cloud deck at 700 feet AGL
Weather: no significant weather observed at this time

METAR text: ESIA 210520Z AUTO 23012KT 9999 OVC007/// 07/05 Q1019
Conditions at: ESIA (KARLSBORG (SWE-A, SE) observed 0520 UTC 21 March 2019
Temperature: 7.0°C (45°F)
Dewpoint: 5.0°C (41°F) [RH = 87%]
Pressure (altimeter): 30.09 inches Hg (1019.0 mb)
Winds: from the SW (230 degrees) at 14 MPH (12 knots; 6.2 m/s)
Visibility: 6 or more miles (10+ km)
Ceiling: 700 feet AGL
Clouds: overcast cloud deck at 700 feet AGL
Weather: no significant weather observed at this time

METAR text: ESIA 210450Z AUTO 23013KT 9999 OVC006/// 07/05 Q1019
Conditions at: ESIA (KARLSBORG (SWE-A, SE) observed 0450 UTC 21 March 2019
Temperature: 7.0°C (45°F)
Dewpoint: 5.0°C (41°F) [RH = 87%]
Pressure (altimeter): 30.09 inches Hg (1019.0 mb)
Winds: from the SW (230 degrees) at 15 MPH (13 knots; 6.7 m/s)
Visibility: 6 or more miles (10+ km)
Ceiling: 600 feet AGL
Clouds: overcast cloud deck at 600 feet AGL
Weather: no significant weather observed at this time

METAR text: ESIA 210420Z AUTO 24014KT 7000 BR BKN007/// OVC009/// 06/05 Q1020
Conditions at: ESIA (KARLSBORG (SWE-A, SE) observed 0420 UTC 21 March 2019
Temperature: 6.0°C (43°F)
Dewpoint: 5.0°C (41°F) [RH = 93%]
Pressure (altimeter): 30.12 inches Hg (1020.0 mb)
Winds: from the WSW (240 degrees) at 16 MPH (14 knots; 7.2 m/s)
Visibility: 4 miles ( 7 km)
Ceiling: 700 feet AGL
Clouds: broken clouds at 700 feet AGL
overcast cloud deck at 900 feet AGL
Weather: BR  (mist)

METAR text: ESIA 210350Z AUTO 24014KT 9999 OVC011/// 06/04 Q1020
Conditions at: ESIA (KARLSBORG (SWE-A, SE) observed 0350 UTC 21 March 2019
Temperature: 6.0°C (43°F)
Dewpoint: 4.0°C (39°F) [RH = 87%]
Pressure (altimeter): 30.12 inches Hg (1020.0 mb)
Winds: from the WSW (240 degrees) at 16 MPH (14 knots; 7.2 m/s)
Visibility: 6 or more miles (10+ km)
Ceiling: 1100 feet AGL
Clouds: overcast cloud deck at 1100 feet AGL
Weather: no significant weather observed at this time

METAR text: ESIA 210320Z AUTO 21006KT 190V250 9999 OVC014/// 05/03 Q1020
Conditions at: ESIA (KARLSBORG (SWE-A, SE) observed 0320 UTC 21 March 2019
Temperature: 5.0°C (41°F)
Dewpoint: 3.0°C (37°F) [RH = 87%]
Pressure (altimeter): 30.12 inches Hg (1020.0 mb)
Winds: from the SSW (210 degrees) at 7 MPH (6 knots; 3.1 m/s)
Visibility: 6 or more miles (10+ km)
Ceiling: 1400 feet AGL
Clouds: overcast cloud deck at 1400 feet AGL
Weather: no significant weather observed at this time

METAR text: ESIA 210250Z AUTO 19008KT 9999 OVC018/// 05/02 Q1020
Conditions at: ESIA (KARLSBORG (SWE-A, SE) observed 0250 UTC 21 March 2019
Temperature: 5.0°C (41°F)
Dewpoint: 2.0°C (36°F) [RH = 81%]
Pressure (altimeter): 30.12 inches Hg (1020.0 mb)
Winds: from the S (190 degrees) at 9 MPH (8 knots; 4.1 m/s)
Visibility: 6 or more miles (10+ km)
Ceiling: 1800 feet AGL
Clouds: overcast cloud deck at 1800 feet AGL
Weather: no significant weather observed at this time

METAR text: ESIA 210220Z AUTO 21008KT 9999 -SHRA FEW022/// BKN080/// OVC096/// 05/02 Q1021
Conditions at: ESIA (KARLSBORG (SWE-A, SE) observed 0220 UTC 21 March 2019
Temperature: 5.0°C (41°F)
Dewpoint: 2.0°C (36°F) [RH = 81%]
Pressure (altimeter): 30.15 inches Hg (1021.0 mb)
Winds: from the SSW (210 degrees) at 9 MPH (8 knots; 4.1 m/s)
Visibility: 6 or more miles (10+ km)
Ceiling: 8000 feet AGL
Clouds: few clouds at 2200 feet AGL
broken clouds at 8000 feet AGL
overcast cloud deck at 9600 feet AGL
Weather: -SHRA  (light rain showers)

METAR text: ESIA 210150Z AUTO 21007KT 9999 OVC092/// 06/02 Q1021
Conditions at: ESIA (KARLSBORG (SWE-A, SE) observed 0150 UTC 21 March 2019
Temperature: 6.0°C (43°F)
Dewpoint: 2.0°C (36°F) [RH = 75%]
Pressure (altimeter): 30.15 inches Hg (1021.0 mb)
Winds: from the SSW (210 degrees) at 8 MPH (7 knots; 3.6 m/s)
Visibility: 6 or more miles (10+ km)
Ceiling: 9200 feet AGL
Clouds: overcast cloud deck at 9200 feet AGL
Weather: no significant weather observed at this time

METAR text: ESIA 210120Z AUTO 23009KT 9999 FEW094/// SCT120/// 05/02 Q1021
Conditions at: ESIA (KARLSBORG (SWE-A, SE) observed 0120 UTC 21 March 2019
Temperature: 5.0°C (41°F)
Dewpoint: 2.0°C (36°F) [RH = 81%]
Pressure (altimeter): 30.15 inches Hg (1021.0 mb)
Winds: from the SW (230 degrees) at 10 MPH (9 knots; 4.6 m/s)
Visibility: 6 or more miles (10+ km)
Ceiling: at least 12,000 feet AGL
Clouds: few clouds at 9400 feet AGL
scattered clouds at 12000 feet AGL
Weather: no significant weather observed at this time

METAR text: ESIA 210050Z AUTO 25010KT 9999 FEW090/// 05/02 Q1022
Conditions at: ESIA (KARLSBORG (SWE-A, SE) observed 0050 UTC 21 March 2019
Temperature: 5.0°C (41°F)
Dewpoint: 2.0°C (36°F) [RH = 81%]
Pressure (altimeter): 30.18 inches Hg (1022.0 mb)
Winds: from the WSW (250 degrees) at 12 MPH (10 knots; 5.1 m/s)
Visibility: 6 or more miles (10+ km)
Ceiling: at least 12,000 feet AGL
Clouds: few clouds at 9000 feet AGL
Weather: no significant weather observed at this time

Forecast for: ESIA (KARLSBORG (SWE-A, SE)
Text: TAF ESIA 220825Z 2209/2211 VRB02KT CAVOK
Forecast period: 0900 to 1100 UTC 22 March 2019
Forecast type: FROM: standard forecast or significant change
Winds: variable direction winds at 2 MPH (2 knots; 1.0 m/s)
Visibility: 6 or more miles 10+ km)
Ceiling: unknown
Clouds: missing
Weather: NSW  (no significant weather)
Text: BECMG 2209/2211 18008KT RMK MIL
Forecast period: 0900 to 1100 UTC 22 March 2019
Forecast type: BECOMING: Conditions expected to become as follows by 1100 UTC 22 March 2019
Winds: from the S (180 degrees) at 9 MPH (8 knots; 4.1 m/s)
Visibility: 6 or more miles 10+ km)
Ceiling: unknown
Clouds: missing
Weather: NSW  (no significant weather)